sensor_id;sensor_type;location;lat;lon;timestamp;P1;durP1;ratioP1;P2;durP2;ratioP2
52692;SDS011;68218;51.012;-1.648;2024-02-28T00:00:22;14.75;;;3.60;;
52692;SDS011;68218;51.012;-1.648;2024-02-28T00:02:47;17.23;;;6.35;;
52692;SDS011;68218;51.012;-1.648;2024-02-28T00:05:12;20.63;;;8.77;;
52692;SDS011;68218;51.012;-1.648;2024-02-28T00:07:38;14.70;;;5.15;;
52692;SDS011;68218;51.012;-1.648;2024-02-28T00:10:03;11.25;;;3.83;;
52692;SDS011;68218;51.012;-1.648;2024-02-28T00:12:29;12.70;;;4.00;;
52692;SDS011;68218;51.012;-1.648;2024-02-28T00:14:54;13.55;;;4.40;;
52692;SDS011;68218;51.012;-1.648;2024-02-28T00:17:19;10.00;;;3.55;;
52692;SDS011;68218;51.012;-1.648;2024-02-28T00:19:45;12.55;;;4.20;;
52692;SDS011;68218;51.012;-1.648;2024-02-28T00:22:10;13.75;;;3.85;;
52692;SDS011;68218;51.012;-1.648;2024-02-28T00:24:35;11.05;;;4.18;;
52692;SDS011;68218;51.012;-1.648;2024-02-28T00:27:01;12.68;;;4.43;;
52692;SDS011;68218;51.012;-1.648;2024-02-28T00:29:26;12.82;;;4.07;;
52692;SDS011;68218;51.012;-1.648;2024-02-28T00:31:52;11.43;;;4.50;;
52692;SDS011;68218;51.012;-1.648;2024-02-28T00:34:17;11.18;;;3.90;;
52692;SDS011;68218;51.012;-1.648;2024-02-28T00:36:43;11.43;;;3.25;;
52692;SDS011;68218;51.012;-1.648;2024-02-28T00:39:08;11.77;;;3.50;;
52692;SDS011;68218;51.012;-1.648;2024-02-28T00:41:34;12.43;;;3.58;;
52692;SDS011;68218;51.012;-1.648;2024-02-28T00:43:59;10.48;;;4.05;;
52692;SDS011;68218;51.012;-1.648;2024-02-28T00:46:25;12.70;;;3.85;;
52692;SDS011;68218;51.012;-1.648;2024-02-28T00:48:50;9.60;;;3.92;;
52692;SDS011;68218;51.012;-1.648;2024-02-28T00:51:15;14.35;;;4.00;;
52692;SDS011;68218;51.012;-1.648;2024-02-28T00:53:41;11.77;;;3.70;;
52692;SDS011;68218;51.012;-1.648;2024-02-28T00:56:08;10.05;;;3.70;;
52692;SDS011;68218;51.012;-1.648;2024-02-28T00:58:33;18.85;;;4.20;;
52692;SDS011;68218;51.012;-1.648;2024-02-28T01:00:58;13.23;;;3.92;;
52692;SDS011;68218;51.012;-1.648;2024-02-28T01:03:24;15.32;;;4.70;;
52692;SDS011;68218;51.012;-1.648;2024-02-28T01:05:49;13.10;;;4.15;;
52692;SDS011;68218;51.012;-1.648;2024-02-28T01:08:15;10.98;;;3.88;;
52692;SDS011;68218;51.012;-1.648;2024-02-28T01:10:42;10.25;;;3.92;;
52692;SDS011;68218;51.012;-1.648;2024-02-28T01:13:08;12.68;;;3.55;;
52692;SDS011;68218;51.012;-1.648;2024-02-28T01:15:33;13.77;;;4.03;;
52692;SDS011;68218;51.012;-1.648;2024-02-28T01:17:59;12.57;;;3.35;;
52692;SDS011;68218;51.012;-1.648;2024-02-28T01:20:25;14.13;;;3.30;;
52692;SDS011;68218;51.012;-1.648;2024-02-28T01:22:50;16.92;;;3.35;;
52692;SDS011;68218;51.012;-1.648;2024-02-28T01:25:15;10.13;;;3.45;;
52692;SDS011;68218;51.012;-1.648;2024-02-28T01:27:40;12.38;;;3.20;;
52692;SDS011;68218;51.012;-1.648;2024-02-28T01:30:06;15.27;;;2.95;;
52692;SDS011;68218;51.012;-1.648;2024-02-28T01:32:32;11.32;;;3.63;;
52692;SDS011;68218;51.012;-1.648;2024-02-28T01:34:57;13.70;;;3.65;;
52692;SDS011;68218;51.012;-1.648;2024-02-28T01:37:22;14.82;;;3.33;;
52692;SDS011;68218;51.012;-1.648;2024-02-28T01:39:49;15.15;;;3.50;;
52692;SDS011;68218;51.012;-1.648;2024-02-28T01:42:14;20.75;;;3.20;;
52692;SDS011;68218;51.012;-1.648;2024-02-28T01:44:43;8.88;;;2.40;;
52692;SDS011;68218;51.012;-1.648;2024-02-28T01:47:11;11.27;;;3.08;;
52692;SDS011;68218;51.012;-1.648;2024-02-28T01:49:36;14.07;;;3.28;;
52692;SDS011;68218;51.012;-1.648;2024-02-28T01:52:02;9.32;;;3.00;;
52692;SDS011;68218;51.012;-1.648;2024-02-28T01:54:28;11.13;;;3.28;;
52692;SDS011;68218;51.012;-1.648;2024-02-28T01:56:55;10.80;;;3.08;;
52692;SDS011;68218;51.012;-1.648;2024-02-28T01:59:21;9.40;;;3.00;;
52692;SDS011;68218;51.012;-1.648;2024-02-28T02:01:49;9.32;;;2.67;;
52692;SDS011;68218;51.012;-1.648;2024-02-28T02:04:15;9.77;;;2.67;;
52692;SDS011;68218;51.012;-1.648;2024-02-28T02:06:42;12.55;;;3.35;;
52692;SDS011;68218;51.012;-1.648;2024-02-28T02:09:09;10.00;;;2.80;;
52692;SDS011;68218;51.012;-1.648;2024-02-28T02:11:35;10.65;;;2.60;;
52692;SDS011;68218;51.012;-1.648;2024-02-28T02:14:00;7.55;;;2.85;;
52692;SDS011;68218;51.012;-1.648;2024-02-28T02:16:26;12.70;;;2.88;;
52692;SDS011;68218;51.012;-1.648;2024-02-28T02:18:51;6.90;;;2.45;;
52692;SDS011;68218;51.012;-1.648;2024-02-28T02:21:20;10.00;;;2.55;;
52692;SDS011;68218;51.012;-1.648;2024-02-28T02:23:49;14.18;;;2.80;;
52692;SDS011;68218;51.012;-1.648;2024-02-28T02:26:14;9.85;;;3.25;;
52692;SDS011;68218;51.012;-1.648;2024-02-28T02:28:40;6.82;;;2.53;;
52692;SDS011;68218;51.012;-1.648;2024-02-28T02:31:05;9.80;;;2.45;;
52692;SDS011;68218;51.012;-1.648;2024-02-28T02:33:30;8.43;;;2.45;;
52692;SDS011;68218;51.012;-1.648;2024-02-28T02:35:56;6.30;;;1.92;;
52692;SDS011;68218;51.012;-1.648;2024-02-28T02:38:21;5.70;;;2.30;;
52692;SDS011;68218;51.012;-1.648;2024-02-28T02:40:52;6.30;;;2.03;;
52692;SDS011;68218;51.012;-1.648;2024-02-28T02:43:18;7.28;;;2.15;;
52692;SDS011;68218;51.012;-1.648;2024-02-28T02:45:43;5.18;;;1.80;;
52692;SDS011;68218;51.012;-1.648;2024-02-28T02:48:09;5.68;;;2.00;;
52692;SDS011;68218;51.012;-1.648;2024-02-28T02:50:35;3.55;;;1.70;;
52692;SDS011;68218;51.012;-1.648;2024-02-28T02:53:00;5.15;;;1.92;;
52692;SDS011;68218;51.012;-1.648;2024-02-28T02:55:26;4.10;;;1.80;;
52692;SDS011;68218;51.012;-1.648;2024-02-28T02:57:51;7.78;;;2.00;;
52692;SDS011;68218;51.012;-1.648;2024-02-28T03:00:16;5.45;;;2.13;;
52692;SDS011;68218;51.012;-1.648;2024-02-28T03:02:42;6.53;;;1.40;;
52692;SDS011;68218;51.012;-1.648;2024-02-28T03:05:07;3.83;;;1.50;;
52692;SDS011;68218;51.012;-1.648;2024-02-28T03:07:33;5.03;;;1.80;;
52692;SDS011;68218;51.012;-1.648;2024-02-28T03:09:58;4.10;;;1.90;;
52692;SDS011;68218;51.012;-1.648;2024-02-28T03:12:24;6.30;;;1.60;;
52692;SDS011;68218;51.012;-1.648;2024-02-28T03:14:49;7.15;;;1.70;;
52692;SDS011;68218;51.012;-1.648;2024-02-28T03:17:15;6.35;;;2.03;;
52692;SDS011;68218;51.012;-1.648;2024-02-28T03:19:40;3.97;;;1.60;;
52692;SDS011;68218;51.012;-1.648;2024-02-28T03:22:06;4.28;;;1.70;;
52692;SDS011;68218;51.012;-1.648;2024-02-28T03:24:32;4.50;;;1.63;;
52692;SDS011;68218;51.012;-1.648;2024-02-28T03:27:00;3.85;;;1.75;;
52692;SDS011;68218;51.012;-1.648;2024-02-28T03:29:25;4.35;;;1.60;;
52692;SDS011;68218;51.012;-1.648;2024-02-28T03:31:51;7.13;;;1.73;;
52692;SDS011;68218;51.012;-1.648;2024-02-28T03:34:16;5.43;;;1.95;;
52692;SDS011;68218;51.012;-1.648;2024-02-28T03:36:42;6.53;;;2.30;;
52692;SDS011;68218;51.012;-1.648;2024-02-28T03:39:07;3.88;;;1.40;;
52692;SDS011;68218;51.012;-1.648;2024-02-28T03:41:32;4.28;;;1.45;;
52692;SDS011;68218;51.012;-1.648;2024-02-28T03:43:58;4.65;;;1.40;;
52692;SDS011;68218;51.012;-1.648;2024-02-28T03:46:23;6.85;;;1.70;;
52692;SDS011;68218;51.012;-1.648;2024-02-28T03:48:48;4.38;;;1.25;;
52692;SDS011;68218;51.012;-1.648;2024-02-28T03:51:13;4.82;;;1.65;;
52692;SDS011;68218;51.012;-1.648;2024-02-28T03:53:40;4.03;;;1.40;;
52692;SDS011;68218;51.012;-1.648;2024-02-28T03:56:05;5.93;;;1.70;;
52692;SDS011;68218;51.012;-1.648;2024-02-28T03:58:31;4.22;;;1.67;;
52692;SDS011;68218;51.012;-1.648;2024-02-28T04:00:56;5.10;;;1.65;;
52692;SDS011;68218;51.012;-1.648;2024-02-28T04:03:21;4.70;;;1.70;;
52692;SDS011;68218;51.012;-1.648;2024-02-28T04:05:47;3.72;;;1.67;;
52692;SDS011;68218;51.012;-1.648;2024-02-28T04:08:12;7.65;;;2.38;;
52692;SDS011;68218;51.012;-1.648;2024-02-28T04:10:37;3.80;;;1.77;;
52692;SDS011;68218;51.012;-1.648;2024-02-28T04:13:03;3.92;;;1.90;;
52692;SDS011;68218;51.012;-1.648;2024-02-28T04:15:29;3.70;;;1.90;;
52692;SDS011;68218;51.012;-1.648;2024-02-28T04:17:55;4.15;;;1.70;;
52692;SDS011;68218;51.012;-1.648;2024-02-28T04:20:20;3.78;;;2.22;;
52692;SDS011;68218;51.012;-1.648;2024-02-28T04:22:46;3.50;;;1.80;;
52692;SDS011;68218;51.012;-1.648;2024-02-28T04:25:11;4.68;;;2.17;;
52692;SDS011;68218;51.012;-1.648;2024-02-28T04:27:36;7.88;;;2.05;;
52692;SDS011;68218;51.012;-1.648;2024-02-28T04:30:02;8.75;;;2.70;;
52692;SDS011;68218;51.012;-1.648;2024-02-28T04:32:28;4.65;;;2.35;;
52692;SDS011;68218;51.012;-1.648;2024-02-28T04:34:54;3.80;;;2.13;;
52692;SDS011;68218;51.012;-1.648;2024-02-28T04:37:19;3.30;;;1.92;;
52692;SDS011;68218;51.012;-1.648;2024-02-28T04:39:45;5.13;;;2.20;;
52692;SDS011;68218;51.012;-1.648;2024-02-28T04:42:11;6.47;;;2.40;;
52692;SDS011;68218;51.012;-1.648;2024-02-28T04:44:37;7.28;;;2.20;;
52692;SDS011;68218;51.012;-1.648;2024-02-28T04:47:03;6.43;;;2.00;;
52692;SDS011;68218;51.012;-1.648;2024-02-28T04:49:29;6.25;;;2.08;;
52692;SDS011;68218;51.012;-1.648;2024-02-28T04:51:54;4.85;;;2.05;;
52692;SDS011;68218;51.012;-1.648;2024-02-28T04:54:20;4.15;;;1.88;;
52692;SDS011;68218;51.012;-1.648;2024-02-28T04:56:45;4.68;;;1.70;;
52692;SDS011;68218;51.012;-1.648;2024-02-28T04:59:11;5.82;;;1.88;;
52692;SDS011;68218;51.012;-1.648;2024-02-28T05:01:37;4.82;;;1.90;;
52692;SDS011;68218;51.012;-1.648;2024-02-28T05:04:05;4.47;;;1.70;;
52692;SDS011;68218;51.012;-1.648;2024-02-28T05:06:31;4.68;;;1.80;;
52692;SDS011;68218;51.012;-1.648;2024-02-28T05:08:57;3.58;;;1.40;;
52692;SDS011;68218;51.012;-1.648;2024-02-28T05:11:22;5.70;;;1.85;;
52692;SDS011;68218;51.012;-1.648;2024-02-28T05:13:48;4.82;;;1.60;;
52692;SDS011;68218;51.012;-1.648;2024-02-28T05:16:13;6.85;;;1.95;;
52692;SDS011;68218;51.012;-1.648;2024-02-28T05:18:39;3.88;;;1.80;;
52692;SDS011;68218;51.012;-1.648;2024-02-28T05:21:05;5.35;;;2.10;;
52692;SDS011;68218;51.012;-1.648;2024-02-28T05:23:30;5.63;;;2.10;;
52692;SDS011;68218;51.012;-1.648;2024-02-28T05:25:55;5.00;;;1.98;;
52692;SDS011;68218;51.012;-1.648;2024-02-28T05:28:21;4.88;;;1.70;;
52692;SDS011;68218;51.012;-1.648;2024-02-28T05:30:46;4.43;;;1.90;;
52692;SDS011;68218;51.012;-1.648;2024-02-28T05:33:11;6.03;;;2.30;;
52692;SDS011;68218;51.012;-1.648;2024-02-28T05:35:37;5.07;;;2.22;;
52692;SDS011;68218;51.012;-1.648;2024-02-28T05:38:02;3.50;;;2.05;;
52692;SDS011;68218;51.012;-1.648;2024-02-28T05:40:27;4.00;;;1.65;;
52692;SDS011;68218;51.012;-1.648;2024-02-28T05:42:53;4.78;;;2.10;;
52692;SDS011;68218;51.012;-1.648;2024-02-28T05:45:18;7.43;;;2.17;;
52692;SDS011;68218;51.012;-1.648;2024-02-28T05:47:44;6.00;;;2.05;;
52692;SDS011;68218;51.012;-1.648;2024-02-28T05:50:09;6.25;;;1.90;;
52692;SDS011;68218;51.012;-1.648;2024-02-28T05:52:35;5.43;;;2.05;;
52692;SDS011;68218;51.012;-1.648;2024-02-28T05:55:00;6.55;;;2.65;;
52692;SDS011;68218;51.012;-1.648;2024-02-28T05:57:26;4.00;;;2.10;;
52692;SDS011;68218;51.012;-1.648;2024-02-28T05:59:51;4.82;;;2.15;;
52692;SDS011;68218;51.012;-1.648;2024-02-28T06:02:16;3.35;;;1.88;;
52692;SDS011;68218;51.012;-1.648;2024-02-28T06:04:42;4.05;;;2.05;;
52692;SDS011;68218;51.012;-1.648;2024-02-28T06:07:07;4.38;;;1.73;;
52692;SDS011;68218;51.012;-1.648;2024-02-28T06:09:32;6.30;;;2.30;;
52692;SDS011;68218;51.012;-1.648;2024-02-28T06:11:58;8.57;;;2.47;;
52692;SDS011;68218;51.012;-1.648;2024-02-28T06:14:24;9.25;;;2.58;;
52692;SDS011;68218;51.012;-1.648;2024-02-28T06:16:49;6.53;;;2.65;;
52692;SDS011;68218;51.012;-1.648;2024-02-28T06:19:15;5.97;;;2.22;;
52692;SDS011;68218;51.012;-1.648;2024-02-28T06:21:41;3.60;;;2.40;;
52692;SDS011;68218;51.012;-1.648;2024-02-28T06:24:06;10.68;;;2.67;;
52692;SDS011;68218;51.012;-1.648;2024-02-28T06:26:32;5.95;;;2.47;;
52692;SDS011;68218;51.012;-1.648;2024-02-28T06:28:57;5.32;;;3.28;;
52692;SDS011;68218;51.012;-1.648;2024-02-28T06:31:26;5.63;;;3.13;;
52692;SDS011;68218;51.012;-1.648;2024-02-28T06:33:54;7.22;;;3.08;;
52692;SDS011;68218;51.012;-1.648;2024-02-28T06:36:20;7.50;;;3.42;;
52692;SDS011;68218;51.012;-1.648;2024-02-28T06:38:45;10.77;;;3.65;;
52692;SDS011;68218;51.012;-1.648;2024-02-28T06:41:11;5.97;;;3.33;;
52692;SDS011;68218;51.012;-1.648;2024-02-28T06:43:36;9.68;;;4.18;;
52692;SDS011;68218;51.012;-1.648;2024-02-28T06:46:02;7.38;;;3.78;;
52692;SDS011;68218;51.012;-1.648;2024-02-28T06:48:28;7.85;;;3.38;;
52692;SDS011;68218;51.012;-1.648;2024-02-28T06:50:54;10.70;;;4.30;;
52692;SDS011;68218;51.012;-1.648;2024-02-28T06:53:19;7.32;;;3.70;;
52692;SDS011;68218;51.012;-1.648;2024-02-28T06:55:45;7.00;;;3.92;;
52692;SDS011;68218;51.012;-1.648;2024-02-28T06:58:13;9.43;;;4.35;;
52692;SDS011;68218;51.012;-1.648;2024-02-28T07:00:38;9.95;;;4.70;;
52692;SDS011;68218;51.012;-1.648;2024-02-28T07:03:04;11.55;;;4.45;;
52692;SDS011;68218;51.012;-1.648;2024-02-28T07:05:29;10.45;;;4.20;;
52692;SDS011;68218;51.012;-1.648;2024-02-28T07:07:54;9.55;;;5.15;;
52692;SDS011;68218;51.012;-1.648;2024-02-28T07:10:20;8.00;;;4.38;;
52692;SDS011;68218;51.012;-1.648;2024-02-28T07:12:45;11.38;;;5.32;;
52692;SDS011;68218;51.012;-1.648;2024-02-28T07:15:10;11.18;;;5.50;;
52692;SDS011;68218;51.012;-1.648;2024-02-28T07:17:36;10.02;;;5.40;;
52692;SDS011;68218;51.012;-1.648;2024-02-28T07:20:01;10.10;;;5.43;;
52692;SDS011;68218;51.012;-1.648;2024-02-28T07:22:26;11.07;;;5.50;;
52692;SDS011;68218;51.012;-1.648;2024-02-28T07:24:52;10.13;;;5.68;;
52692;SDS011;68218;51.012;-1.648;2024-02-28T07:27:17;10.77;;;5.70;;
52692;SDS011;68218;51.012;-1.648;2024-02-28T07:29:42;11.55;;;5.78;;
52692;SDS011;68218;51.012;-1.648;2024-02-28T07:32:09;10.05;;;5.47;;
52692;SDS011;68218;51.012;-1.648;2024-02-28T07:34:34;11.82;;;5.32;;
52692;SDS011;68218;51.012;-1.648;2024-02-28T07:36:59;11.40;;;6.28;;
52692;SDS011;68218;51.012;-1.648;2024-02-28T07:39:25;14.98;;;6.53;;
52692;SDS011;68218;51.012;-1.648;2024-02-28T07:41:50;12.02;;;6.00;;
52692;SDS011;68218;51.012;-1.648;2024-02-28T07:44:16;16.25;;;6.35;;
52692;SDS011;68218;51.012;-1.648;2024-02-28T07:46:41;11.75;;;5.78;;
52692;SDS011;68218;51.012;-1.648;2024-02-28T07:49:07;14.57;;;6.03;;
52692;SDS011;68218;51.012;-1.648;2024-02-28T07:51:32;12.32;;;6.03;;
52692;SDS011;68218;51.012;-1.648;2024-02-28T07:53:58;12.35;;;6.07;;
52692;SDS011;68218;51.012;-1.648;2024-02-28T07:56:24;10.75;;;5.88;;
52692;SDS011;68218;51.012;-1.648;2024-02-28T07:58:49;13.45;;;6.95;;
52692;SDS011;68218;51.012;-1.648;2024-02-28T08:01:15;13.93;;;6.93;;
52692;SDS011;68218;51.012;-1.648;2024-02-28T08:03:41;15.93;;;6.30;;
52692;SDS011;68218;51.012;-1.648;2024-02-28T08:06:07;10.77;;;6.32;;
52692;SDS011;68218;51.012;-1.648;2024-02-28T08:08:33;13.75;;;6.65;;
52692;SDS011;68218;51.012;-1.648;2024-02-28T08:11:00;13.93;;;6.93;;
52692;SDS011;68218;51.012;-1.648;2024-02-28T08:13:25;11.40;;;6.28;;
52692;SDS011;68218;51.012;-1.648;2024-02-28T08:15:53;12.20;;;5.78;;
52692;SDS011;68218;51.012;-1.648;2024-02-28T08:18:19;12.40;;;6.32;;
52692;SDS011;68218;51.012;-1.648;2024-02-28T08:20:44;13.70;;;6.85;;
52692;SDS011;68218;51.012;-1.648;2024-02-28T08:23:10;14.95;;;7.00;;
52692;SDS011;68218;51.012;-1.648;2024-02-28T08:25:35;11.93;;;6.22;;
52692;SDS011;68218;51.012;-1.648;2024-02-28T08:28:01;13.40;;;5.82;;
52692;SDS011;68218;51.012;-1.648;2024-02-28T08:30:26;13.57;;;6.28;;
52692;SDS011;68218;51.012;-1.648;2024-02-28T08:32:51;15.57;;;6.22;;
52692;SDS011;68218;51.012;-1.648;2024-02-28T08:35:20;13.27;;;6.40;;
52692;SDS011;68218;51.012;-1.648;2024-02-28T08:37:45;15.98;;;6.68;;
52692;SDS011;68218;51.012;-1.648;2024-02-28T08:40:11;12.38;;;6.30;;
52692;SDS011;68218;51.012;-1.648;2024-02-28T08:42:37;12.07;;;5.80;;
52692;SDS011;68218;51.012;-1.648;2024-02-28T08:45:03;10.52;;;5.65;;
52692;SDS011;68218;51.012;-1.648;2024-02-28T08:47:28;11.75;;;5.50;;
52692;SDS011;68218;51.012;-1.648;2024-02-28T08:49:54;16.67;;;6.38;;
52692;SDS011;68218;51.012;-1.648;2024-02-28T08:52:20;16.10;;;6.60;;
52692;SDS011;68218;51.012;-1.648;2024-02-28T08:54:46;15.00;;;5.90;;
52692;SDS011;68218;51.012;-1.648;2024-02-28T08:57:12;15.23;;;6.28;;
52692;SDS011;68218;51.012;-1.648;2024-02-28T08:59:37;15.80;;;6.65;;
52692;SDS011;68218;51.012;-1.648;2024-02-28T09:02:03;17.17;;;7.47;;
52692;SDS011;68218;51.012;-1.648;2024-02-28T09:04:28;15.95;;;6.82;;
52692;SDS011;68218;51.012;-1.648;2024-02-28T09:06:54;15.45;;;6.68;;
52692;SDS011;68218;51.012;-1.648;2024-02-28T09:09:19;13.20;;;5.93;;
52692;SDS011;68218;51.012;-1.648;2024-02-28T09:11:45;12.40;;;5.88;;
52692;SDS011;68218;51.012;-1.648;2024-02-28T09:14:10;11.90;;;6.38;;
52692;SDS011;68218;51.012;-1.648;2024-02-28T09:16:35;17.77;;;6.63;;
52692;SDS011;68218;51.012;-1.648;2024-02-28T09:19:00;14.88;;;6.47;;
52692;SDS011;68218;51.012;-1.648;2024-02-28T09:21:28;13.48;;;6.07;;
52692;SDS011;68218;51.012;-1.648;2024-02-28T09:23:53;13.88;;;5.85;;
52692;SDS011;68218;51.012;-1.648;2024-02-28T09:26:18;13.43;;;6.38;;
52692;SDS011;68218;51.012;-1.648;2024-02-28T09:28:43;16.50;;;6.72;;
52692;SDS011;68218;51.012;-1.648;2024-02-28T09:31:09;15.70;;;7.22;;
52692;SDS011;68218;51.012;-1.648;2024-02-28T09:33:34;15.05;;;6.43;;
52692;SDS011;68218;51.012;-1.648;2024-02-28T09:36:01;15.30;;;6.35;;
52692;SDS011;68218;51.012;-1.648;2024-02-28T09:38:28;13.98;;;6.65;;
52692;SDS011;68218;51.012;-1.648;2024-02-28T09:40:54;16.83;;;6.30;;
52692;SDS011;68218;51.012;-1.648;2024-02-28T09:43:24;14.20;;;5.82;;
52692;SDS011;68218;51.012;-1.648;2024-02-28T09:45:54;11.93;;;6.13;;
52692;SDS011;68218;51.012;-1.648;2024-02-28T09:48:24;14.73;;;6.20;;
52692;SDS011;68218;51.012;-1.648;2024-02-28T09:50:53;17.73;;;7.15;;
52692;SDS011;68218;51.012;-1.648;2024-02-28T09:53:20;12.63;;;6.35;;
52692;SDS011;68218;51.012;-1.648;2024-02-28T09:55:46;12.10;;;5.82;;
52692;SDS011;68218;51.012;-1.648;2024-02-28T09:58:13;14.18;;;6.18;;
52692;SDS011;68218;51.012;-1.648;2024-02-28T10:00:39;15.68;;;5.65;;
52692;SDS011;68218;51.012;-1.648;2024-02-28T10:03:07;12.40;;;5.35;;
52692;SDS011;68218;51.012;-1.648;2024-02-28T10:05:34;17.80;;;5.97;;
52692;SDS011;68218;51.012;-1.648;2024-02-28T10:08:00;17.08;;;5.88;;
52692;SDS011;68218;51.012;-1.648;2024-02-28T10:10:26;11.90;;;5.45;;
52692;SDS011;68218;51.012;-1.648;2024-02-28T10:12:52;15.02;;;5.75;;
52692;SDS011;68218;51.012;-1.648;2024-02-28T10:15:18;17.55;;;5.90;;
52692;SDS011;68218;51.012;-1.648;2024-02-28T10:17:43;14.85;;;5.18;;
52692;SDS011;68218;51.012;-1.648;2024-02-28T10:20:09;13.70;;;5.20;;
52692;SDS011;68218;51.012;-1.648;2024-02-28T10:22:35;14.90;;;5.10;;
52692;SDS011;68218;51.012;-1.648;2024-02-28T10:25:01;15.35;;;4.82;;
52692;SDS011;68218;51.012;-1.648;2024-02-28T10:27:26;12.68;;;4.57;;
52692;SDS011;68218;51.012;-1.648;2024-02-28T10:29:52;15.10;;;4.90;;
52692;SDS011;68218;51.012;-1.648;2024-02-28T10:32:17;9.98;;;4.10;;
52692;SDS011;68218;51.012;-1.648;2024-02-28T10:34:43;13.50;;;3.90;;
52692;SDS011;68218;51.012;-1.648;2024-02-28T10:37:09;12.82;;;3.60;;
52692;SDS011;68218;51.012;-1.648;2024-02-28T10:39:35;12.10;;;3.53;;
52692;SDS011;68218;51.012;-1.648;2024-02-28T10:42:03;11.70;;;3.42;;
52692;SDS011;68218;51.012;-1.648;2024-02-28T10:44:29;11.88;;;3.30;;
52692;SDS011;68218;51.012;-1.648;2024-02-28T10:46:55;7.10;;;2.88;;
52692;SDS011;68218;51.012;-1.648;2024-02-28T10:49:21;9.07;;;3.10;;
52692;SDS011;68218;51.012;-1.648;2024-02-28T10:51:48;8.40;;;2.90;;
52692;SDS011;68218;51.012;-1.648;2024-02-28T10:54:15;9.93;;;2.78;;
52692;SDS011;68218;51.012;-1.648;2024-02-28T10:56:45;7.72;;;2.70;;
52692;SDS011;68218;51.012;-1.648;2024-02-28T10:59:11;11.00;;;2.55;;
52692;SDS011;68218;51.012;-1.648;2024-02-28T11:01:38;11.20;;;3.00;;
52692;SDS011;68218;51.012;-1.648;2024-02-28T11:04:08;7.20;;;2.42;;
52692;SDS011;68218;51.012;-1.648;2024-02-28T11:06:35;6.57;;;2.28;;
52692;SDS011;68218;51.012;-1.648;2024-02-28T11:09:00;12.73;;;2.78;;
52692;SDS011;68218;51.012;-1.648;2024-02-28T11:11:29;8.75;;;2.40;;
52692;SDS011;68218;51.012;-1.648;2024-02-28T11:13:57;11.63;;;2.50;;
52692;SDS011;68218;51.012;-1.648;2024-02-28T11:16:32;12.32;;;2.88;;
52692;SDS011;68218;51.012;-1.648;2024-02-28T11:18:58;8.40;;;2.70;;
52692;SDS011;68218;51.012;-1.648;2024-02-28T11:21:24;12.55;;;3.10;;
52692;SDS011;68218;51.012;-1.648;2024-02-28T11:23:51;10.40;;;2.63;;
52692;SDS011;68218;51.012;-1.648;2024-02-28T11:26:17;11.60;;;2.92;;
52692;SDS011;68218;51.012;-1.648;2024-02-28T11:28:43;12.52;;;3.13;;
52692;SDS011;68218;51.012;-1.648;2024-02-28T11:31:08;7.72;;;2.38;;
52692;SDS011;68218;51.012;-1.648;2024-02-28T11:33:35;8.85;;;2.92;;
52692;SDS011;68218;51.012;-1.648;2024-02-28T11:36:00;13.75;;;2.80;;
52692;SDS011;68218;51.012;-1.648;2024-02-28T11:38:28;11.13;;;3.00;;
52692;SDS011;68218;51.012;-1.648;2024-02-28T11:40:53;12.57;;;2.88;;
52692;SDS011;68218;51.012;-1.648;2024-02-28T11:43:20;10.93;;;3.70;;
52692;SDS011;68218;51.012;-1.648;2024-02-28T11:45:46;13.07;;;3.30;;
52692;SDS011;68218;51.012;-1.648;2024-02-28T11:48:15;9.73;;;2.92;;
52692;SDS011;68218;51.012;-1.648;2024-02-28T11:50:41;8.95;;;3.22;;
52692;SDS011;68218;51.012;-1.648;2024-02-28T11:53:07;14.75;;;3.42;;
52692;SDS011;68218;51.012;-1.648;2024-02-28T11:55:33;10.88;;;2.75;;
52692;SDS011;68218;51.012;-1.648;2024-02-28T11:57:59;14.70;;;3.80;;
52692;SDS011;68218;51.012;-1.648;2024-02-28T12:00:24;12.35;;;3.45;;
52692;SDS011;68218;51.012;-1.648;2024-02-28T12:02:49;13.45;;;3.30;;
52692;SDS011;68218;51.012;-1.648;2024-02-28T12:05:15;12.65;;;3.38;;
52692;SDS011;68218;51.012;-1.648;2024-02-28T12:07:41;16.38;;;3.30;;
52692;SDS011;68218;51.012;-1.648;2024-02-28T12:10:06;11.90;;;3.40;;
52692;SDS011;68218;51.012;-1.648;2024-02-28T12:12:33;11.35;;;3.40;;
52692;SDS011;68218;51.012;-1.648;2024-02-28T12:14:59;13.13;;;4.07;;
52692;SDS011;68218;51.012;-1.648;2024-02-28T12:17:25;13.40;;;3.33;;
52692;SDS011;68218;51.012;-1.648;2024-02-28T12:19:51;13.25;;;3.92;;
52692;SDS011;68218;51.012;-1.648;2024-02-28T12:22:16;18.63;;;3.72;;
52692;SDS011;68218;51.012;-1.648;2024-02-28T12:24:41;16.33;;;3.60;;
52692;SDS011;68218;51.012;-1.648;2024-02-28T12:27:07;14.38;;;3.45;;
52692;SDS011;68218;51.012;-1.648;2024-02-28T12:29:32;17.45;;;3.78;;
52692;SDS011;68218;51.012;-1.648;2024-02-28T12:31:58;16.48;;;3.42;;
52692;SDS011;68218;51.012;-1.648;2024-02-28T12:34:23;15.38;;;3.22;;
52692;SDS011;68218;51.012;-1.648;2024-02-28T12:36:48;14.82;;;3.67;;
52692;SDS011;68218;51.012;-1.648;2024-02-28T12:39:14;13.13;;;3.10;;
52692;SDS011;68218;51.012;-1.648;2024-02-28T12:41:39;13.45;;;3.15;;
52692;SDS011;68218;51.012;-1.648;2024-02-28T12:44:05;15.75;;;3.42;;
52692;SDS011;68218;51.012;-1.648;2024-02-28T12:46:31;19.95;;;5.18;;
52692;SDS011;68218;51.012;-1.648;2024-02-28T12:48:58;24.70;;;7.15;;
52692;SDS011;68218;51.012;-1.648;2024-02-28T12:54:08;33.47;;;11.52;;
52692;SDS011;68218;51.012;-1.648;2024-02-28T12:56:34;26.60;;;10.25;;
52692;SDS011;68218;51.012;-1.648;2024-02-28T12:59:01;29.25;;;10.68;;
52692;SDS011;68218;51.012;-1.648;2024-02-28T13:01:26;24.50;;;8.68;;
52692;SDS011;68218;51.012;-1.648;2024-02-28T13:03:52;22.25;;;6.15;;
52692;SDS011;68218;51.012;-1.648;2024-02-28T13:06:17;20.67;;;5.72;;
52692;SDS011;68218;51.012;-1.648;2024-02-28T13:08:43;23.77;;;6.50;;
52692;SDS011;68218;51.012;-1.648;2024-02-28T13:11:09;22.60;;;6.43;;
52692;SDS011;68218;51.012;-1.648;2024-02-28T13:13:35;18.63;;;5.50;;
52692;SDS011;68218;51.012;-1.648;2024-02-28T13:16:00;15.35;;;4.68;;
52692;SDS011;68218;51.012;-1.648;2024-02-28T13:18:25;17.77;;;4.88;;
52692;SDS011;68218;51.012;-1.648;2024-02-28T13:20:51;16.80;;;4.47;;
52692;SDS011;68218;51.012;-1.648;2024-02-28T13:23:17;15.60;;;4.45;;
52692;SDS011;68218;51.012;-1.648;2024-02-28T13:25:43;15.90;;;3.97;;
52692;SDS011;68218;51.012;-1.648;2024-02-28T13:28:09;12.70;;;3.47;;
52692;SDS011;68218;51.012;-1.648;2024-02-28T13:30:34;18.90;;;3.13;;
52692;SDS011;68218;51.012;-1.648;2024-02-28T13:33:02;20.75;;;3.55;;
52692;SDS011;68218;51.012;-1.648;2024-02-28T13:35:28;11.32;;;2.50;;
52692;SDS011;68218;51.012;-1.648;2024-02-28T13:37:53;11.30;;;2.90;;
52692;SDS011;68218;51.012;-1.648;2024-02-28T13:40:19;15.65;;;2.78;;
52692;SDS011;68218;51.012;-1.648;2024-02-28T13:42:44;11.65;;;2.55;;
52692;SDS011;68218;51.012;-1.648;2024-02-28T13:45:10;11.05;;;2.42;;
52692;SDS011;68218;51.012;-1.648;2024-02-28T13:47:36;11.68;;;2.83;;
52692;SDS011;68218;51.012;-1.648;2024-02-28T13:50:02;9.68;;;2.58;;
52692;SDS011;68218;51.012;-1.648;2024-02-28T13:52:28;9.45;;;2.15;;
52692;SDS011;68218;51.012;-1.648;2024-02-28T13:54:53;13.05;;;2.70;;
52692;SDS011;68218;51.012;-1.648;2024-02-28T13:57:19;10.32;;;2.28;;
52692;SDS011;68218;51.012;-1.648;2024-02-28T13:59:44;11.60;;;2.30;;
52692;SDS011;68218;51.012;-1.648;2024-02-28T14:02:13;11.02;;;2.30;;
52692;SDS011;68218;51.012;-1.648;2024-02-28T14:04:40;13.98;;;2.30;;
52692;SDS011;68218;51.012;-1.648;2024-02-28T14:07:07;9.32;;;2.40;;
52692;SDS011;68218;51.012;-1.648;2024-02-28T14:09:33;7.90;;;2.55;;
52692;SDS011;68218;51.012;-1.648;2024-02-28T14:11:58;8.10;;;2.30;;
52692;SDS011;68218;51.012;-1.648;2024-02-28T14:14:25;9.80;;;2.40;;
52692;SDS011;68218;51.012;-1.648;2024-02-28T14:16:50;7.22;;;2.92;;
52692;SDS011;68218;51.012;-1.648;2024-02-28T14:19:16;7.97;;;2.88;;